createdAt,value
2022-07-27T00:01:25.899Z,16.50
2022-07-27T00:03:52.616Z,16.50
2022-07-27T00:06:19.197Z,16.40
2022-07-27T00:08:45.891Z,16.40
2022-07-27T00:11:12.734Z,16.40
2022-07-27T00:13:39.393Z,16.40
2022-07-27T00:16:06.198Z,16.30
2022-07-27T00:18:33.048Z,16.30
2022-07-27T00:20:59.770Z,16.30
2022-07-27T00:23:26.362Z,16.30
2022-07-27T00:25:52.955Z,16.30
2022-07-27T00:28:19.610Z,16.20
2022-07-27T00:30:46.263Z,16.20
2022-07-27T00:33:17.474Z,16.10
2022-07-27T00:35:44.382Z,16.10
2022-07-27T00:38:11.172Z,16.00
2022-07-27T00:40:37.785Z,16.00
2022-07-27T00:43:04.398Z,16.00
2022-07-27T00:45:31.041Z,16.00
2022-07-27T00:47:57.661Z,15.90
2022-07-27T00:50:24.293Z,15.90
2022-07-27T00:52:51.143Z,15.90
2022-07-27T00:55:17.760Z,15.90
2022-07-27T00:57:57.931Z,16.00
2022-07-27T01:00:27.011Z,16.00
2022-07-27T01:02:53.807Z,16.00
2022-07-27T01:05:20.691Z,16.00
2022-07-27T01:07:47.790Z,15.90
2022-07-27T01:10:14.376Z,16.00
2022-07-27T01:12:41.245Z,16.00
2022-07-27T01:15:07.906Z,16.00
2022-07-27T01:17:34.534Z,15.90
2022-07-27T01:20:01.186Z,15.90
2022-07-27T01:22:27.775Z,15.90
2022-07-27T01:24:54.375Z,15.90
2022-07-27T01:27:20.957Z,15.90
2022-07-27T01:29:47.788Z,15.80
2022-07-27T01:32:14.439Z,15.80
2022-07-27T01:34:41.055Z,15.80
2022-07-27T01:37:07.994Z,15.80
2022-07-27T01:39:34.624Z,15.80
2022-07-27T01:42:01.243Z,15.80
2022-07-27T01:44:27.896Z,15.80
2022-07-27T01:46:54.530Z,15.70
2022-07-27T01:49:21.395Z,15.70
2022-07-27T01:51:48.072Z,15.70
2022-07-27T01:54:15.076Z,15.70
2022-07-27T01:56:41.889Z,15.70
2022-07-27T01:59:15.913Z,15.70
2022-07-27T02:01:43.409Z,15.70
2022-07-27T02:04:10.330Z,15.60
2022-07-27T02:09:59.324Z,15.60
2022-07-27T02:12:38.358Z,15.60
2022-07-27T02:15:15.798Z,15.60
2022-07-27T02:17:43.030Z,15.60
2022-07-27T02:20:09.965Z,15.60
2022-07-27T02:22:36.713Z,15.60
2022-07-27T02:25:03.598Z,15.50
2022-07-27T02:27:30.198Z,15.50
2022-07-27T02:29:57.961Z,15.50
2022-07-27T02:32:24.560Z,15.50
2022-07-27T02:34:51.197Z,15.50
2022-07-27T02:37:17.981Z,15.40
2022-07-27T02:39:44.580Z,15.50
2022-07-27T02:42:11.176Z,15.40
2022-07-27T02:44:37.782Z,15.40
2022-07-27T02:47:04.354Z,15.30
2022-07-27T02:49:31.141Z,15.30
2022-07-27T02:51:57.702Z,15.30
2022-07-27T02:54:25.140Z,15.30
2022-07-27T02:56:52.094Z,15.20
2022-07-27T02:59:19.017Z,15.30
2022-07-27T03:01:45.756Z,15.30
2022-07-27T03:04:12.443Z,15.30
2022-07-27T03:06:39.067Z,15.20
2022-07-27T03:09:05.722Z,15.20
2022-07-27T03:11:32.479Z,15.20
2022-07-27T03:13:59.067Z,15.20
2022-07-27T03:16:25.756Z,15.20
2022-07-27T03:18:52.391Z,15.20
2022-07-27T03:21:18.950Z,15.20
2022-07-27T03:23:48.354Z,15.10
2022-07-27T03:26:15.090Z,15.00
2022-07-27T03:28:41.690Z,15.00
2022-07-27T03:31:08.311Z,15.00
2022-07-27T03:33:35.028Z,15.00
2022-07-27T03:36:01.725Z,15.00
2022-07-27T03:38:28.576Z,14.90
2022-07-27T03:40:55.217Z,14.90
2022-07-27T03:43:22.006Z,14.90
2022-07-27T03:45:48.595Z,14.90
2022-07-27T03:48:15.166Z,14.80
2022-07-27T03:50:41.743Z,14.80
2022-07-27T03:53:09.129Z,14.90
2022-07-27T03:55:35.701Z,14.90
2022-07-27T03:58:02.263Z,14.80
2022-07-27T04:00:28.834Z,15.10
2022-07-27T04:02:55.482Z,15.10
2022-07-27T04:05:22.139Z,15.20
2022-07-27T04:07:48.927Z,15.20
2022-07-27T04:10:21.473Z,15.20
2022-07-27T04:12:49.442Z,15.30
2022-07-27T04:15:16.834Z,15.20
2022-07-27T04:17:54.170Z,15.20
2022-07-27T04:20:23.250Z,15.60
2022-07-27T04:22:53.071Z,15.50
2022-07-27T04:25:19.736Z,15.50
2022-07-27T04:27:46.381Z,15.50
2022-07-27T04:30:13.044Z,16.00
2022-07-27T04:32:40.042Z,16.20
2022-07-27T04:35:06.809Z,16.40
2022-07-27T04:37:33.726Z,16.50
2022-07-27T04:40:00.992Z,16.70
2022-07-27T04:42:28.689Z,17.10
2022-07-27T04:44:55.336Z,17.20
2022-07-27T04:47:21.936Z,17.40
2022-07-27T04:49:48.655Z,17.50
2022-07-27T04:52:15.975Z,17.40
2022-07-27T04:54:43.155Z,17.40
2022-07-27T04:57:09.803Z,17.50
2022-07-27T04:59:36.415Z,17.50
2022-07-27T05:02:03.013Z,17.60
2022-07-27T05:04:29.749Z,17.40
2022-07-27T05:06:57.362Z,17.30
2022-07-27T05:09:24.025Z,17.50
2022-07-27T05:11:52.177Z,17.60
2022-07-27T05:14:21.255Z,17.70
2022-07-27T05:16:48.621Z,17.70
2022-07-27T05:19:15.613Z,17.80
2022-07-27T05:21:42.482Z,17.60
2022-07-27T05:24:10.114Z,17.30
2022-07-27T05:26:36.931Z,17.20
2022-07-27T05:29:03.602Z,17.20
2022-07-27T05:31:30.458Z,17.20
2022-07-27T05:33:58.440Z,17.20
2022-07-27T05:36:25.534Z,17.40
2022-07-27T05:38:52.162Z,17.70
2022-07-27T05:41:25.126Z,18.40
2022-07-27T05:43:51.956Z,19.70
2022-07-27T05:46:18.677Z,21.70
2022-07-27T05:48:45.474Z,22.70
2022-07-27T05:51:12.192Z,23.90
2022-07-27T05:53:38.859Z,25.60
2022-07-27T05:56:05.789Z,25.80
2022-07-27T05:58:32.401Z,24.40
2022-07-27T06:00:59.120Z,22.90
2022-07-27T06:03:26.139Z,21.80
2022-07-27T06:05:52.803Z,21.30
2022-07-27T06:08:19.411Z,21.70
2022-07-27T06:10:46.083Z,22.90
2022-07-27T06:13:15.896Z,24.40
2022-07-27T06:15:42.568Z,25.20
2022-07-27T06:18:16.720Z,25.70
2022-07-27T06:20:43.466Z,26.40
2022-07-27T06:23:10.948Z,26.00
2022-07-27T06:25:37.574Z,25.30
2022-07-27T06:28:04.529Z,23.90
2022-07-27T06:30:31.327Z,22.90
2022-07-27T06:32:58.109Z,22.10
2022-07-27T06:35:26.416Z,22.20
2022-07-27T06:37:53.821Z,22.00
2022-07-27T06:40:20.625Z,22.50
2022-07-27T06:42:47.214Z,23.70
2022-07-27T06:45:13.861Z,24.20
2022-07-27T06:47:49.790Z,24.20
2022-07-27T06:50:20.504Z,24.40
2022-07-27T06:52:47.520Z,25.40
2022-07-27T06:55:14.114Z,26.70
2022-07-27T06:57:42.099Z,27.80
2022-07-27T07:00:09.599Z,29.00
2022-07-27T07:02:36.251Z,28.40
2022-07-27T07:05:02.886Z,26.70
2022-07-27T07:07:29.566Z,25.30
2022-07-27T07:09:56.153Z,24.10
2022-07-27T07:12:22.872Z,23.40
2022-07-27T07:14:49.492Z,23.50
2022-07-27T07:17:19.962Z,23.80
2022-07-27T07:19:47.004Z,24.50
2022-07-27T07:22:14.146Z,25.30
2022-07-27T07:24:40.940Z,26.00
2022-07-27T07:27:07.567Z,26.30
2022-07-27T07:29:34.386Z,27.20
2022-07-27T07:32:00.985Z,28.40
2022-07-27T07:34:29.194Z,29.20
2022-07-27T07:36:55.847Z,29.60
2022-07-27T07:39:23.867Z,29.60
2022-07-27T07:41:53.741Z,29.60
2022-07-27T07:44:20.352Z,29.30
2022-07-27T07:46:47.526Z,29.40
2022-07-27T07:49:14.589Z,29.70
2022-07-27T07:51:41.698Z,30.30
2022-07-27T07:54:08.833Z,30.00
2022-07-27T07:56:35.439Z,29.50
2022-07-27T07:59:04.821Z,27.90
2022-07-27T08:01:31.711Z,27.70
2022-07-27T08:03:58.346Z,27.20
2022-07-27T08:06:24.990Z,26.40
2022-07-27T08:08:51.629Z,25.10
2022-07-27T08:11:18.239Z,24.10
2022-07-27T08:13:45.176Z,23.70
2022-07-27T08:16:12.017Z,23.90
2022-07-27T08:18:38.658Z,24.00
2022-07-27T08:21:05.452Z,23.60
2022-07-27T08:23:32.102Z,22.90
2022-07-27T08:26:01.780Z,22.20
2022-07-27T08:28:35.642Z,21.80
2022-07-27T08:31:14.052Z,22.90
2022-07-27T08:33:41.377Z,24.40
2022-07-27T08:36:08.086Z,26.10
2022-07-27T08:38:34.674Z,26.20
2022-07-27T08:41:01.730Z,25.40
2022-07-27T08:43:28.320Z,24.70
2022-07-27T08:45:56.193Z,24.30
2022-07-27T08:48:24.209Z,24.40
2022-07-27T08:50:50.940Z,23.80
2022-07-27T08:53:18.420Z,23.20
2022-07-27T08:55:45.392Z,22.60
2022-07-27T08:58:12.319Z,22.40
2022-07-27T09:00:39.861Z,22.40
2022-07-27T09:03:06.611Z,22.80
2022-07-27T09:05:36.339Z,23.20
2022-07-27T09:08:14.997Z,23.20
2022-07-27T09:10:41.682Z,22.90
2022-07-27T09:13:27.908Z,22.80
2022-07-27T09:18:45.494Z,24.10
2022-07-27T09:21:12.162Z,24.40
2022-07-27T09:23:39.093Z,24.00
2022-07-27T09:26:24.759Z,23.90
2022-07-27T09:28:57.200Z,23.70
2022-07-27T09:31:23.999Z,23.30
2022-07-27T09:33:51.402Z,23.40
2022-07-27T09:36:18.402Z,23.50
2022-07-27T09:39:00.011Z,23.60
2022-07-27T09:41:38.747Z,23.40
2022-07-27T09:44:30.580Z,23.30
2022-07-27T09:46:53.027Z,23.40
2022-07-27T09:49:32.669Z,23.30
2022-07-27T09:52:01.730Z,23.10
2022-07-27T09:54:42.202Z,23.00
2022-07-27T09:57:09.050Z,22.90
2022-07-27T09:59:35.640Z,22.80
2022-07-27T10:02:02.335Z,22.80
2022-07-27T10:04:29.098Z,22.40
2022-07-27T10:07:05.426Z,22.50
2022-07-27T10:09:32.903Z,23.10
2022-07-27T10:11:59.654Z,23.80
2022-07-27T10:14:26.225Z,24.00
2022-07-27T10:16:53.023Z,23.80
2022-07-27T10:19:20.480Z,23.70
2022-07-27T10:21:47.435Z,23.50
2022-07-27T10:24:40.359Z,23.40
2022-07-27T10:27:26.312Z,23.20
2022-07-27T10:29:52.946Z,23.10
2022-07-27T10:32:23.553Z,23.60
2022-07-27T10:34:50.333Z,23.90
2022-07-27T10:37:17.613Z,23.20
2022-07-27T10:39:45.498Z,23.00
2022-07-27T10:42:18.990Z,22.70
2022-07-27T10:44:54.762Z,22.70
2022-07-27T10:47:28.259Z,22.70
2022-07-27T10:50:13.739Z,22.70
2022-07-27T10:52:46.579Z,22.80
2022-07-27T10:55:31.605Z,23.10
2022-07-27T10:57:58.766Z,23.40
2022-07-27T11:00:48.841Z,23.60
2022-07-27T11:03:19.570Z,23.60
2022-07-27T11:06:00.351Z,23.60
2022-07-27T11:08:38.159Z,23.80
2022-07-27T11:11:15.694Z,23.60
2022-07-27T11:13:42.317Z,23.10
2022-07-27T11:16:23.920Z,22.90
2022-07-27T11:18:53.928Z,22.40
2022-07-27T11:21:26.674Z,22.40
2022-07-27T11:23:57.343Z,22.70
2022-07-27T11:26:25.003Z,23.00
2022-07-27T11:28:52.121Z,23.00
2022-07-27T11:31:32.715Z,23.00
2022-07-27T11:34:05.585Z,23.00
2022-07-27T11:36:50.709Z,22.60
2022-07-27T11:39:40.360Z,22.40
2022-07-27T11:42:09.506Z,22.50
2022-07-27T11:44:39.923Z,22.80
2022-07-27T11:47:07.634Z,23.10
2022-07-27T11:49:34.554Z,23.00
2022-07-27T11:52:02.112Z,23.20
2022-07-27T11:54:29.297Z,23.00
2022-07-27T11:56:56.551Z,23.00
2022-07-27T11:59:23.707Z,22.90
2022-07-27T12:01:54.204Z,23.30
2022-07-27T12:04:22.014Z,23.80
2022-07-27T12:06:53.812Z,23.80
2022-07-27T12:09:20.645Z,23.40
2022-07-27T12:11:50.225Z,23.20
2022-07-27T12:14:17.416Z,23.10
2022-07-27T12:16:44.397Z,23.10
2022-07-27T12:19:12.614Z,23.00
2022-07-27T12:21:39.431Z,23.10
2022-07-27T12:24:06.335Z,23.10
2022-07-27T12:26:32.972Z,23.20
2022-07-27T12:29:12.682Z,23.30
2022-07-27T12:31:47.317Z,23.50
2022-07-27T12:34:14.851Z,23.70
2022-07-27T12:36:41.743Z,23.80
2022-07-27T12:39:08.354Z,23.40
2022-07-27T12:41:35.358Z,23.20
2022-07-27T12:44:05.974Z,23.40
2022-07-27T12:46:32.708Z,23.50
2022-07-27T12:48:59.401Z,23.10
2022-07-27T12:51:26.095Z,22.90
2022-07-27T12:53:52.673Z,22.70
2022-07-27T12:56:27.466Z,22.90
2022-07-27T12:58:58.768Z,22.60
2022-07-27T13:01:25.433Z,22.20
2022-07-27T13:03:52.231Z,22.00
2022-07-27T13:06:19.134Z,21.90
2022-07-27T13:08:45.961Z,22.00
2022-07-27T13:11:13.716Z,22.10
2022-07-27T13:13:40.577Z,22.30
2022-07-27T13:16:07.218Z,22.50
2022-07-27T13:18:33.902Z,22.60
2022-07-27T13:21:00.601Z,22.50
2022-07-27T13:23:27.730Z,22.70
2022-07-27T13:25:54.462Z,22.80
2022-07-27T13:28:21.108Z,23.10
2022-07-27T13:30:47.711Z,23.30
2022-07-27T13:33:14.302Z,23.50
2022-07-27T13:35:43.288Z,23.20
2022-07-27T13:38:16.086Z,22.70
2022-07-27T13:40:43.984Z,22.70
2022-07-27T13:43:12.211Z,22.40
2022-07-27T13:45:43.547Z,22.20
2022-07-27T13:48:11.859Z,22.60
2022-07-27T13:50:39.184Z,23.10
2022-07-27T13:53:05.910Z,23.10
2022-07-27T13:55:32.497Z,23.10
2022-07-27T13:57:59.175Z,23.10
2022-07-27T14:00:25.769Z,23.20
2022-07-27T14:02:53.363Z,23.30
2022-07-27T14:05:20.941Z,23.20
2022-07-27T14:07:47.553Z,22.90
2022-07-27T14:10:32.611Z,22.60
2022-07-27T14:13:07.859Z,22.40
2022-07-27T14:15:50.654Z,22.20
2022-07-27T14:18:22.287Z,22.10
2022-07-27T14:20:49.437Z,22.00
2022-07-27T14:23:16.199Z,21.90
2022-07-27T14:25:42.896Z,21.90
2022-07-27T14:28:09.699Z,21.80
2022-07-27T14:30:36.289Z,22.10
2022-07-27T14:33:03.211Z,22.80
2022-07-27T14:35:29.862Z,23.40
2022-07-27T14:37:58.360Z,23.50
2022-07-27T14:40:25.680Z,23.60
2022-07-27T14:42:52.649Z,24.00
2022-07-27T14:45:19.883Z,24.30
2022-07-27T14:47:46.816Z,24.70
2022-07-27T14:50:13.405Z,25.00
2022-07-27T14:52:40.052Z,25.20
2022-07-27T14:55:06.716Z,25.20
2022-07-27T14:57:33.369Z,25.10
2022-07-27T15:00:00.348Z,25.00
2022-07-27T15:02:27.027Z,25.30
2022-07-27T15:04:53.638Z,25.20
2022-07-27T15:07:20.284Z,25.00
2022-07-27T15:09:47.040Z,24.70
2022-07-27T15:12:14.341Z,24.40
2022-07-27T15:14:40.982Z,23.80
2022-07-27T15:17:07.662Z,23.50
2022-07-27T15:19:34.282Z,23.10
2022-07-27T15:22:00.914Z,22.80
2022-07-27T15:24:27.547Z,22.90
2022-07-27T15:26:54.976Z,23.00
2022-07-27T15:29:21.599Z,23.10
2022-07-27T15:31:49.692Z,23.10
2022-07-27T15:34:16.531Z,22.80
2022-07-27T15:36:47.240Z,22.50
2022-07-27T15:39:20.832Z,22.10
2022-07-27T15:41:47.466Z,21.80
2022-07-27T15:44:15.169Z,21.70
2022-07-27T15:46:42.968Z,21.50
2022-07-27T15:49:10.195Z,21.60
2022-07-27T15:51:37.358Z,21.60
2022-07-27T15:54:05.501Z,21.50
2022-07-27T15:56:33.934Z,21.70
2022-07-27T15:59:00.566Z,21.80
2022-07-27T16:01:35.617Z,21.80
2022-07-27T16:04:02.902Z,21.80
2022-07-27T16:06:34.020Z,21.80
2022-07-27T16:09:03.758Z,21.80
2022-07-27T16:11:30.390Z,21.80
2022-07-27T16:13:57.191Z,21.90
2022-07-27T16:16:30.466Z,22.10
2022-07-27T16:18:57.677Z,22.10
2022-07-27T16:21:24.682Z,22.00
2022-07-27T16:23:51.724Z,22.00
2022-07-27T16:26:18.321Z,21.90
2022-07-27T16:28:45.476Z,21.90
2022-07-27T16:31:13.984Z,21.70
2022-07-27T16:33:41.301Z,21.60
2022-07-27T16:36:08.451Z,21.50
2022-07-27T16:38:35.646Z,21.50
2022-07-27T16:41:06.132Z,21.50
2022-07-27T16:43:38.554Z,21.50
2022-07-27T16:46:09.935Z,21.50
2022-07-27T16:48:42.757Z,21.70
2022-07-27T16:51:10.902Z,21.70
2022-07-27T16:53:41.165Z,22.00
2022-07-27T16:56:09.031Z,22.10
2022-07-27T16:58:35.709Z,22.10
2022-07-27T17:01:02.368Z,22.10
2022-07-27T17:03:28.947Z,22.10
2022-07-27T17:05:55.592Z,22.10
2022-07-27T17:08:26.124Z,22.10
2022-07-27T17:10:55.065Z,22.20
2022-07-27T17:13:22.470Z,22.20
2022-07-27T17:16:01.074Z,22.20
2022-07-27T17:18:27.729Z,22.20
2022-07-27T17:20:54.394Z,22.20
2022-07-27T17:23:20.989Z,22.20
2022-07-27T17:25:47.629Z,22.20
2022-07-27T17:28:14.213Z,22.00
2022-07-27T17:30:40.825Z,21.90
2022-07-27T17:33:07.438Z,21.60
2022-07-27T17:35:35.141Z,21.30
2022-07-27T17:38:06.920Z,21.10
2022-07-27T17:40:34.427Z,21.00
2022-07-27T17:43:01.048Z,20.80
2022-07-27T17:45:27.909Z,20.80
2022-07-27T17:47:54.854Z,20.60
2022-07-27T17:50:21.558Z,20.30
2022-07-27T17:52:48.173Z,20.10
2022-07-27T17:55:14.961Z,19.90
2022-07-27T17:57:41.678Z,19.80
2022-07-27T18:00:10.563Z,19.60
2022-07-27T18:02:37.237Z,19.60
2022-07-27T18:05:03.952Z,19.50
2022-07-27T18:07:30.590Z,19.50
2022-07-27T18:10:05.983Z,19.40
2022-07-27T18:12:34.472Z,19.40
2022-07-27T18:15:19.891Z,19.40
2022-07-27T18:17:46.694Z,19.40
2022-07-27T18:20:13.310Z,19.50
2022-07-27T18:22:40.221Z,19.40
2022-07-27T18:25:07.187Z,19.40
2022-07-27T18:27:35.368Z,19.40
2022-07-27T18:30:02.985Z,19.30
2022-07-27T18:32:29.756Z,19.20
2022-07-27T18:34:56.429Z,19.10
2022-07-27T18:37:23.052Z,19.00
2022-07-27T18:39:49.653Z,18.80
2022-07-27T18:42:16.300Z,18.70
2022-07-27T18:44:42.993Z,18.60
2022-07-27T18:47:09.598Z,18.50
2022-07-27T18:49:36.422Z,18.40
2022-07-27T18:52:03.191Z,18.30
2022-07-27T18:54:29.940Z,18.30
2022-07-27T18:56:56.626Z,18.20
2022-07-27T18:59:23.270Z,18.10
2022-07-27T19:01:49.964Z,18.00
2022-07-27T19:04:18.955Z,17.90
2022-07-27T19:06:46.044Z,17.80
2022-07-27T19:09:12.985Z,17.70
2022-07-27T19:11:39.919Z,17.70
2022-07-27T19:14:06.692Z,17.50
2022-07-27T19:16:35.720Z,17.40
2022-07-27T19:19:02.470Z,17.30
2022-07-27T19:21:29.119Z,17.20
2022-07-27T19:23:55.816Z,17.00
2022-07-27T19:26:22.843Z,16.90
2022-07-27T19:28:49.887Z,16.70
2022-07-27T19:31:22.558Z,16.60
2022-07-27T19:33:52.043Z,16.50
2022-07-27T19:36:19.126Z,16.40
2022-07-27T19:38:45.739Z,16.30
2022-07-27T19:41:12.396Z,16.20
2022-07-27T19:43:38.977Z,16.10
2022-07-27T19:46:05.647Z,16.00
2022-07-27T19:48:32.541Z,15.90
2022-07-27T19:51:04.717Z,15.90
2022-07-27T19:53:35.302Z,15.90
2022-07-27T19:56:02.014Z,15.90
2022-07-27T19:58:28.603Z,15.90
2022-07-27T20:00:55.970Z,15.90
2022-07-27T20:03:22.796Z,15.90
2022-07-27T20:05:49.417Z,15.90
2022-07-27T20:08:16.097Z,15.80
2022-07-27T20:10:42.768Z,15.80
2022-07-27T20:13:09.723Z,15.70
2022-07-27T20:15:36.571Z,15.60
2022-07-27T20:18:03.283Z,15.60
2022-07-27T20:20:29.901Z,15.50
2022-07-27T20:22:56.634Z,15.40
2022-07-27T20:25:23.247Z,15.30
2022-07-27T20:27:49.888Z,15.30
2022-07-27T20:30:17.251Z,15.20
2022-07-27T20:32:44.257Z,15.20
2022-07-27T20:35:10.884Z,15.10
2022-07-27T20:37:37.523Z,15.10
2022-07-27T20:40:07.674Z,15.00
2022-07-27T20:42:34.257Z,15.00
2022-07-27T20:45:00.905Z,15.00
2022-07-27T20:47:32.608Z,15.00
2022-07-27T20:50:01.047Z,15.00
2022-07-27T20:52:27.661Z,14.90
2022-07-27T20:54:54.318Z,14.90
2022-07-27T20:57:21.103Z,14.90
2022-07-27T20:59:47.715Z,14.80
2022-07-27T21:02:14.415Z,14.80
2022-07-27T21:04:41.071Z,14.70
2022-07-27T21:07:07.850Z,14.70
2022-07-27T21:09:34.448Z,14.70
2022-07-27T21:12:01.231Z,14.70
2022-07-27T21:14:27.818Z,14.60
2022-07-27T21:16:54.527Z,14.60
2022-07-27T21:19:22.415Z,14.60
2022-07-27T21:21:49.030Z,14.50
2022-07-27T21:24:17.415Z,14.50
2022-07-27T21:26:45.785Z,14.40
2022-07-27T21:29:15.142Z,14.40
2022-07-27T21:31:41.778Z,14.30
2022-07-27T21:34:08.481Z,14.30
2022-07-27T21:36:35.154Z,14.30
2022-07-27T21:39:01.942Z,14.20
2022-07-27T21:41:28.648Z,14.10
2022-07-27T21:43:55.413Z,14.00
2022-07-27T21:46:22.096Z,13.90
2022-07-27T21:48:48.910Z,13.80
2022-07-27T21:51:18.258Z,13.80
2022-07-27T21:53:45.448Z,13.80
2022-07-27T21:56:13.601Z,13.80
2022-07-27T21:58:40.321Z,13.80
2022-07-27T22:01:09.140Z,13.90
2022-07-27T22:03:36.872Z,13.90
2022-07-27T22:06:04.694Z,13.90
2022-07-27T22:08:31.335Z,13.90
2022-07-27T22:10:57.977Z,13.90
2022-07-27T22:13:24.828Z,13.80
2022-07-27T22:15:51.478Z,13.70
2022-07-27T22:18:18.158Z,13.50
2022-07-27T22:20:44.909Z,13.40
2022-07-27T22:23:11.657Z,13.30
2022-07-27T22:25:38.252Z,13.20
2022-07-27T22:28:05.018Z,13.20
2022-07-27T22:30:31.614Z,13.10
2022-07-27T22:32:58.459Z,13.10
2022-07-27T22:35:25.324Z,13.00
2022-07-27T22:37:51.902Z,12.90
2022-07-27T22:40:19.200Z,12.80
2022-07-27T22:42:45.981Z,12.70
2022-07-27T22:45:12.585Z,12.70
2022-07-27T22:47:39.669Z,12.60
2022-07-27T22:50:08.059Z,12.60
2022-07-27T22:52:40.298Z,12.50
2022-07-27T22:55:07.022Z,12.40
2022-07-27T22:57:33.812Z,12.40
2022-07-27T23:00:00.389Z,12.40
2022-07-27T23:02:28.577Z,12.30
2022-07-27T23:04:56.565Z,12.30
2022-07-27T23:07:23.345Z,12.20
2022-07-27T23:09:49.968Z,12.20
2022-07-27T23:12:16.620Z,12.20
2022-07-27T23:14:43.237Z,12.10
2022-07-27T23:17:15.849Z,12.10
2022-07-27T23:19:42.708Z,12.00
2022-07-27T23:22:11.469Z,11.90
2022-07-27T23:24:38.412Z,11.80
2022-07-27T23:27:07.715Z,11.80
2022-07-27T23:29:34.388Z,11.80
2022-07-27T23:32:02.521Z,11.70
2022-07-27T23:34:29.309Z,11.70
2022-07-27T23:36:56.421Z,11.70
2022-07-27T23:39:23.091Z,11.70
2022-07-27T23:41:50.279Z,11.70
2022-07-27T23:44:17.399Z,11.60
2022-07-27T23:46:44.338Z,11.60
2022-07-27T23:49:11.265Z,11.50
2022-07-27T23:51:37.951Z,11.50
2022-07-27T23:54:04.529Z,11.40
2022-07-27T23:56:31.151Z,11.30
2022-07-27T23:58:57.818Z,11.20
